Time,TemperatureF,DewpointF,PressureIn,WindDirection,WindDirectionDegrees,WindSpeedMPH,WindSpeedGustMPH,Humidity,HourlyPrecipIn,Conditions,Clouds,dailyrainin,SoftwareType,DateUTC
2013-03-09 00:09:00,51.3,34.0,29.97,WSW,245,0.0,-999.0,53,-99.99,,,0.00,weatherlink.com 1.10,2013-03-09 07:09:00,
2013-03-09 00:24:00,51.2,34.0,29.97,SSW,205,4.0,-999.0,53,-99.99,,,0.00,weatherlink.com 1.10,2013-03-09 07:24:00,
2013-03-09 00:39:00,51.2,35.0,29.98,South,182,3.0,-999.0,54,-99.99,,,0.00,weatherlink.com 1.10,2013-03-09 07:39:00,
2013-03-09 00:54:00,51.3,34.0,29.98,South,183,0.0,-999.0,53,-99.99,,,0.00,weatherlink.com 1.10,2013-03-09 07:54:00,
2013-03-09 01:09:00,51.3,34.0,29.98,SSE,161,6.0,-999.0,53,-99.99,,,0.00,weatherlink.com 1.10,2013-03-09 08:09:00,
2013-03-09 01:24:00,51.0,34.0,29.99,SSE,159,4.0,-999.0,53,-99.99,,,0.00,weatherlink.com 1.10,2013-03-09 08:24:00,
2013-03-09 01:39:00,51.2,34.0,29.99,South,172,11.0,-999.0,52,-99.99,,,0.00,weatherlink.com 1.10,2013-03-09 08:39:00,
2013-03-09 01:54:00,51.2,34.0,30.00,South,174,7.0,-999.0,52,-99.99,,,0.00,weatherlink.com 1.10,2013-03-09 08:54:00,
2013-03-09 02:09:00,51.1,34.0,30.00,SSE,167,6.0,-999.0,52,-99.99,,,0.00,weatherlink.com 1.10,2013-03-09 09:09:00,
2013-03-09 02:24:00,51.0,34.0,30.00,South,173,6.0,-999.0,53,-99.99,,,0.00,weatherlink.com 1.10,2013-03-09 09:24:00,
2013-03-09 02:39:00,51.0,35.0,30.00,SSE,163,7.0,-999.0,55,-99.99,,,0.00,weatherlink.com 1.10,2013-03-09 09:39:00,
2013-03-09 02:54:00,50.8,35.0,29.99,South,173,7.0,-999.0,56,-99.99,,,0.00,weatherlink.com 1.10,2013-03-09 09:54:00,
2013-03-09 03:09:00,50.6,35.0,29.99,South,173,4.0,-999.0,56,-99.99,,,0.00,weatherlink.com 1.10,2013-03-09 10:09:00,
2013-03-09 03:24:00,50.6,35.0,29.98,South,173,2.0,-999.0,56,-99.99,,,0.00,weatherlink.com 1.10,2013-03-09 10:24:00,
2013-03-09 03:39:00,50.8,34.0,29.98,South,173,2.0,-999.0,54,-99.99,,,0.00,weatherlink.com 1.10,2013-03-09 10:39:00,
2013-03-09 03:54:00,51.0,34.0,29.98,SSW,207,1.0,-999.0,52,-99.99,,,0.00,weatherlink.com 1.10,2013-03-09 10:54:00,
2013-03-09 04:09:00,51.0,34.0,29.98,SSW,198,1.0,-999.0,52,-99.99,,,0.00,weatherlink.com 1.10,2013-03-09 11:09:00,
2013-03-09 04:24:00,50.6,34.0,29.98,South,182,5.0,-999.0,54,-99.99,,,0.00,weatherlink.com 1.10,2013-03-09 11:24:00,
2013-03-09 04:39:00,50.1,34.0,29.98,South,178,5.0,-999.0,55,-99.99,,,0.00,weatherlink.com 1.10,2013-03-09 11:39:00,
2013-03-09 04:55:00,50.1,34.0,29.98,South,180,3.0,-999.0,55,-99.99,,,0.00,weatherlink.com 1.10,2013-03-09 11:55:00,
2013-03-09 05:10:00,49.9,35.0,29.98,South,181,3.0,-999.0,56,-99.99,,,0.00,weatherlink.com 1.10,2013-03-09 12:10:00,
2013-03-09 05:25:00,49.9,35.0,29.99,South,181,4.0,-999.0,56,-99.99,,,0.00,weatherlink.com 1.10,2013-03-09 12:25:00,
2013-03-09 05:40:00,49.8,34.0,29.99,SSE,165,1.0,-999.0,56,-99.99,,,0.00,weatherlink.com 1.10,2013-03-09 12:40:00,
2013-03-09 05:55:00,49.9,35.0,30.00,SSE,165,0.0,-999.0,56,-99.99,,,0.00,weatherlink.com 1.10,2013-03-09 12:55:00,
2013-03-09 06:10:00,49.8,34.0,30.00,SSE,165,6.0,-999.0,56,-99.99,,,0.00,weatherlink.com 1.10,2013-03-09 13:10:00,
2013-03-09 06:25:00,49.4,35.0,30.01,SSE,165,5.0,-999.0,57,-99.99,,,0.00,weatherlink.com 1.10,2013-03-09 13:25:00,
2013-03-09 06:40:00,49.1,35.0,30.01,South,178,8.0,-999.0,58,-99.99,,,0.00,weatherlink.com 1.10,2013-03-09 13:40:00,
2013-03-09 06:55:00,48.8,34.0,30.01,South,178,4.0,-999.0,58,-99.99,,,0.00,weatherlink.com 1.10,2013-03-09 13:55:00,
2013-03-09 07:10:00,48.7,34.0,30.02,South,175,4.0,-999.0,58,-99.99,,,0.00,weatherlink.com 1.10,2013-03-09 14:10:00,
2013-03-09 07:24:00,49.0,35.0,30.02,SSE,160,7.0,-999.0,58,-99.99,,,0.00,weatherlink.com 1.10,2013-03-09 14:24:00,
2013-03-09 07:39:00,49.2,35.0,30.02,SSE,167,7.0,-999.0,58,-99.99,,,0.00,weatherlink.com 1.10,2013-03-09 14:39:00,
2013-03-09 07:55:00,49.7,35.0,30.03,South,170,7.0,-999.0,58,-99.99,,,0.00,weatherlink.com 1.10,2013-03-09 14:55:00,
2013-03-09 08:10:00,50.2,36.0,30.03,South,177,6.0,-999.0,58,-99.99,,,0.00,weatherlink.com 1.10,2013-03-09 15:10:00,
2013-03-09 08:25:00,51.0,36.0,30.04,South,178,7.0,-999.0,57,-99.99,,,0.00,weatherlink.com 1.10,2013-03-09 15:25:00,
2013-03-09 08:39:00,51.9,36.0,30.04,South,180,9.0,-999.0,56,-99.99,,,0.00,weatherlink.com 1.10,2013-03-09 15:39:00,
2013-03-09 08:55:00,52.3,36.0,30.05,South,183,7.0,-999.0,55,-99.99,,,0.00,weatherlink.com 1.10,2013-03-09 15:55:00,
2013-03-09 09:10:00,52.7,36.0,30.05,South,189,6.0,-999.0,54,-99.99,,,0.00,weatherlink.com 1.10,2013-03-09 16:10:00,
2013-03-09 09:25:00,54.7,37.0,30.06,SSW,205,0.0,-999.0,51,-99.99,,,0.00,weatherlink.com 1.10,2013-03-09 16:25:00,
2013-03-09 09:40:00,55.8,36.0,30.06,SSW,202,6.0,-999.0,48,-99.99,,,0.00,weatherlink.com 1.10,2013-03-09 16:40:00,
2013-03-09 09:55:00,55.5,36.0,30.06,SSW,195,9.0,-999.0,48,-99.99,,,0.00,weatherlink.com 1.10,2013-03-09 16:55:00,
2013-03-09 10:10:00,57.1,36.0,30.07,SSW,205,5.0,-999.0,46,-99.99,,,0.00,weatherlink.com 1.10,2013-03-09 17:10:00,
2013-03-09 10:25:00,58.7,36.0,30.07,SW,227,4.0,-999.0,43,-99.99,,,0.00,weatherlink.com 1.10,2013-03-09 17:25:00,
2013-03-09 10:40:00,59.1,36.0,30.07,WSW,238,6.0,-999.0,43,-99.99,,,0.00,weatherlink.com 1.10,2013-03-09 17:40:00,
2013-03-09 10:56:00,59.4,36.0,30.07,West,259,4.0,-999.0,42,-99.99,,,0.00,weatherlink.com 1.10,2013-03-09 17:56:00,
2013-03-09 11:10:00,60.2,36.0,30.07,WSW,244,8.0,-999.0,41,-99.99,,,0.00,weatherlink.com 1.10,2013-03-09 18:10:00,
2013-03-09 11:25:00,60.7,36.0,30.06,West,265,7.0,-999.0,40,-99.99,,,0.00,weatherlink.com 1.10,2013-03-09 18:25:00,
2013-03-09 11:40:00,60.8,35.0,30.07,West,264,3.0,-999.0,39,-99.99,,,0.00,weatherlink.com 1.10,2013-03-09 18:40:00,
2013-03-09 11:55:00,61.5,35.0,30.06,West,263,7.0,-999.0,38,-99.99,,,0.00,weatherlink.com 1.10,2013-03-09 18:55:00,
2013-03-09 12:10:00,62.2,35.0,30.06,West,263,3.0,-999.0,36,-99.99,,,0.00,weatherlink.com 1.10,2013-03-09 19:10:00,
2013-03-09 12:26:00,63.1,36.0,30.05,SSW,197,3.0,-999.0,36,-99.99,,,0.00,weatherlink.com 1.10,2013-03-09 19:26:00,
2013-03-09 12:40:00,63.9,36.0,30.05,SW,232,2.0,-999.0,35,-99.99,,,0.00,weatherlink.com 1.10,2013-03-09 19:40:00,
2013-03-09 12:55:00,63.2,34.0,30.05,West,279,4.0,-999.0,34,-99.99,,,0.00,weatherlink.com 1.10,2013-03-09 19:55:00,
2013-03-09 13:11:00,63.2,34.0,30.05,West,268,4.0,-999.0,34,-99.99,,,0.00,weatherlink.com 1.10,2013-03-09 20:11:00,
2013-03-09 13:25:00,63.6,35.0,30.05,West,274,6.0,-999.0,34,-99.99,,,0.00,weatherlink.com 1.10,2013-03-09 20:25:00,
2013-03-09 13:41:00,64.5,34.0,30.05,NW,325,2.0,-999.0,32,-99.99,,,0.00,weatherlink.com 1.10,2013-03-09 20:41:00,
2013-03-09 13:56:00,63.9,34.0,30.04,NW,306,4.0,-999.0,33,-99.99,,,0.00,weatherlink.com 1.10,2013-03-09 20:56:00,
2013-03-09 14:10:00,64.4,35.0,30.04,WSW,252,6.0,-999.0,33,-99.99,,,0.00,weatherlink.com 1.10,2013-03-09 21:10:00,
2013-03-09 14:26:00,65.0,34.0,30.03,WNW,295,7.0,-999.0,32,-99.99,,,0.00,weatherlink.com 1.10,2013-03-09 21:26:00,
2013-03-09 14:40:00,65.2,34.0,30.03,WNW,298,3.0,-999.0,31,-99.99,,,0.00,weatherlink.com 1.10,2013-03-09 21:40:00,
2013-03-09 14:55:00,65.8,34.0,30.03,WNW,285,4.0,-999.0,31,-99.99,,,0.00,weatherlink.com 1.10,2013-03-09 21:55:00,
2013-03-09 15:11:00,64.7,33.0,30.04,NW,315,3.0,-999.0,31,-99.99,,,0.00,weatherlink.com 1.10,2013-03-09 22:11:00,
2013-03-09 15:25:00,65.8,34.0,30.04,WNW,293,6.0,-999.0,31,-99.99,,,0.00,weatherlink.com 1.10,2013-03-09 22:25:00,
2013-03-09 15:40:00,66.0,34.0,30.03,WNW,301,10.0,-999.0,31,-99.99,,,0.00,weatherlink.com 1.10,2013-03-09 22:40:00,
2013-03-09 15:56:00,65.5,34.0,30.03,WNW,290,0.0,-999.0,31,-99.99,,,0.00,weatherlink.com 1.10,2013-03-09 22:56:00,
2013-03-09 16:10:00,66.1,34.0,30.03,NW,324,1.0,-999.0,30,-99.99,,,0.00,weatherlink.com 1.10,2013-03-09 23:10:00,
2013-03-09 16:26:00,65.0,34.0,30.03,WNW,299,2.0,-999.0,31,-99.99,,,0.00,weatherlink.com 1.10,2013-03-09 23:26:00,
2013-03-09 16:41:00,64.8,34.0,30.03,West,269,4.0,-999.0,32,-99.99,,,0.00,weatherlink.com 1.10,2013-03-09 23:41:00,
2013-03-09 16:55:00,64.7,35.0,30.03,NNW,344,4.0,-999.0,33,-99.99,,,0.00,weatherlink.com 1.10,2013-03-09 23:55:00,
2013-03-09 17:11:00,64.0,34.0,30.04,North,360,1.0,-999.0,33,-99.99,,,0.00,weatherlink.com 1.10,2013-03-10 00:11:00,
2013-03-09 17:26:00,63.9,35.0,30.04,North,5,5.0,-999.0,34,-99.99,,,0.00,weatherlink.com 1.10,2013-03-10 00:26:00,
2013-03-09 17:40:00,63.7,35.0,30.05,NNW,344,3.0,-999.0,34,-99.99,,,0.00,weatherlink.com 1.10,2013-03-10 00:40:00,
2013-03-09 17:56:00,63.5,35.0,30.05,North,5,7.0,-999.0,35,-99.99,,,0.00,weatherlink.com 1.10,2013-03-10 00:56:00,
2013-03-09 18:11:00,63.2,35.0,30.06,North,355,5.0,-999.0,35,-99.99,,,0.00,weatherlink.com 1.10,2013-03-10 01:11:00,
2013-03-09 18:26:00,63.1,35.0,30.06,NNW,346,4.0,-999.0,35,-99.99,,,0.00,weatherlink.com 1.10,2013-03-10 01:26:00,
2013-03-09 18:41:00,62.9,35.0,30.07,North,11,2.0,-999.0,36,-99.99,,,0.00,weatherlink.com 1.10,2013-03-10 01:41:00,
2013-03-09 18:56:00,62.6,36.0,30.08,North,355,2.0,-999.0,37,-99.99,,,0.00,weatherlink.com 1.10,2013-03-10 01:56:00,
2013-03-09 19:10:00,62.4,36.0,30.08,North,5,5.0,-999.0,37,-99.99,,,0.00,weatherlink.com 1.10,2013-03-10 02:10:00,
2013-03-09 19:26:00,62.2,36.0,30.08,North,5,0.0,-999.0,38,-99.99,,,0.00,weatherlink.com 1.10,2013-03-10 02:26:00,
2013-03-09 19:41:00,62.0,36.0,30.09,NNE,18,2.0,-999.0,38,-99.99,,,0.00,weatherlink.com 1.10,2013-03-10 02:41:00,
2013-03-09 19:56:00,61.8,36.0,30.10,NNE,16,7.0,-999.0,38,-99.99,,,0.00,weatherlink.com 1.10,2013-03-10 02:56:00,
2013-03-09 20:11:00,61.6,36.0,30.10,NNE,26,2.0,-999.0,39,-99.99,,,0.00,weatherlink.com 1.10,2013-03-10 03:11:00,
2013-03-09 20:26:00,61.2,36.0,30.10,NNE,12,1.0,-999.0,39,-99.99,,,0.00,weatherlink.com 1.10,2013-03-10 03:26:00,
2013-03-09 20:41:00,61.0,36.0,30.10,North,10,1.0,-999.0,40,-99.99,,,0.00,weatherlink.com 1.10,2013-03-10 03:41:00,
2013-03-09 21:11:00,60.4,37.0,30.11,North,10,1.0,-999.0,42,-99.99,,,0.00,weatherlink.com 1.10,2013-03-10 04:11:00,
2013-03-09 21:26:00,60.2,37.0,30.11,North,10,0.0,-999.0,42,-99.99,,,0.00,weatherlink.com 1.10,2013-03-10 04:26:00,
2013-03-09 21:41:00,59.7,37.0,30.11,North,10,0.0,-999.0,43,-99.99,,,0.00,weatherlink.com 1.10,2013-03-10 04:41:00,
2013-03-09 21:56:00,58.2,36.0,30.12,North,10,0.0,-999.0,44,-99.99,,,0.00,weatherlink.com 1.10,2013-03-10 04:56:00,
2013-03-09 22:11:00,57.8,36.0,30.12,North,9,0.0,-999.0,45,-99.99,,,0.00,weatherlink.com 1.10,2013-03-10 05:11:00,
2013-03-09 22:26:00,56.7,36.0,30.12,North,9,0.0,-999.0,47,-99.99,,,0.00,weatherlink.com 1.10,2013-03-10 05:26:00,
2013-03-09 22:41:00,55.1,37.0,30.12,North,9,0.0,-999.0,50,-99.99,,,0.00,weatherlink.com 1.10,2013-03-10 05:41:00,
2013-03-09 22:56:00,54.0,37.0,30.12,North,9,0.0,-999.0,52,-99.99,,,0.00,weatherlink.com 1.10,2013-03-10 05:56:00,
2013-03-09 23:11:00,52.8,35.0,30.13,North,9,0.0,-999.0,52,-99.99,,,0.00,weatherlink.com 1.10,2013-03-10 06:11:00,
2013-03-09 23:26:00,51.6,35.0,30.12,North,9,0.0,-999.0,54,-99.99,,,0.00,weatherlink.com 1.10,2013-03-10 06:26:00,
2013-03-09 23:41:00,51.0,36.0,30.13,North,9,0.0,-999.0,57,-99.99,,,0.00,weatherlink.com 1.10,2013-03-10 06:41:00,
2013-03-09 23:56:00,51.2,36.0,30.13,North,9,0.0,-999.0,57,-99.99,,,0.00,weatherlink.com 1.10,2013-03-10 06:56:00,